Time;durP1;ratioP1;P1;durP2;ratioP2;P2;SDS_P1;SDS_P2;PMS_P1;PMS_P2;Temp;Humidity;BMP_temperature;BMP_pressure;BME280_temperature;BME280_humidity;BME280_pressure;Samples;Min_cycle;Max_cycle;Signal;HPM_P1;HPM_P2
2022/07/04 00:00:28;;;;;;;6.90;2.50;;;;;;;17.40;67.13;100348.15;106039;1274;22535;-62
2022/07/04 00:03:06;;;;;;;8.50;2.80;;;;;;;17.36;67.25;100340.95;105926;1274;25372;-61
2022/07/04 00:05:35;;;;;;;7.80;2.60;;;;;;;17.31;67.42;100338.88;105956;1273;25340;-60
2022/07/04 00:08:05;;;;;;;6.00;2.40;;;;;;;17.25;67.53;100334.66;106039;1275;25433;-61
2022/07/04 00:10:33;;;;;;;;;;;;;;;17.18;67.54;100335.12;106107;1274;25517;-60
2022/07/04 00:13:02;;;;;;;8.80;2.10;;;;;;;17.09;67.87;100335.31;106091;1274;22545;-60
2022/07/04 00:15:31;;;;;;;8.10;2.60;;;;;;;17.04;68.01;100335.52;105941;1274;25516;-62
2022/07/04 00:18:00;;;;;;;10.20;2.80;;;;;;;17.00;67.95;100329.70;106098;1275;24259;-59
2022/07/04 00:20:30;;;;;;;8.00;2.90;;;;;;;16.98;67.97;100331.91;105993;1274;24323;-60
2022/07/04 00:22:58;;;;;;;6.40;2.20;;;;;;;16.96;68.01;100332.23;105947;1274;25491;-62
2022/07/04 00:25:28;;;;;;;9.60;2.70;;;;;;;16.91;68.22;100332.65;106233;1274;22597;-60
2022/07/04 00:27:57;;;;;;;7.30;2.50;;;;;;;16.84;68.38;100336.59;106256;1274;24054;-59
2022/07/04 00:30:27;;;;;;;9.10;2.80;;;;;;;16.79;68.70;100336.39;106243;1273;22695;-61
2022/07/04 00:32:56;;;;;;;7.90;2.50;;;;;;;16.78;68.58;100340.25;105957;1273;22554;-60
2022/07/04 00:35:25;;;;;;;8.50;3.40;;;;;;;16.78;68.66;100336.26;106291;1274;22548;-61
2022/07/04 00:37:54;;;;;;;9.80;2.90;;;;;;;16.75;68.93;100338.27;106032;1274;22570;-62
2022/07/04 00:40:23;;;;;;;8.80;3.00;;;;;;;16.72;68.90;100331.27;106164;1273;22703;-57
2022/07/04 00:42:52;;;;;;;13.90;2.90;;;;;;;16.70;69.05;100327.52;106138;1274;24283;-59
2022/07/04 00:45:21;;;;;;;11.10;3.20;;;;;;;16.69;69.00;100320.21;108575;1273;24344;-59
2022/07/04 00:47:50;;;;;;;8.00;2.80;;;;;;;16.70;69.25;100316.92;107506;1273;22584;-59
2022/07/04 00:50:20;;;;;;;8.90;3.00;;;;;;;16.69;69.41;100312.84;106210;1274;22680;-58
2022/07/04 00:52:49;;;;;;;10.00;3.50;;;;;;;16.67;69.43;100308.88;106141;1274;22721;-59
2022/07/04 00:55:19;;;;;;;8.80;3.60;;;;;;;16.63;69.68;100314.64;106144;1274;22689;-59
2022/07/04 00:57:49;;;;;;;7.80;2.90;;;;;;;16.59;69.94;100312.10;106133;1274;22550;-58
2022/07/04 01:00:19;;;;;;;9.40;2.90;;;;;;;16.55;69.97;100303.60;106019;1274;22717;-59
2022/07/04 01:02:48;;;;;;;8.60;3.10;;;;;;;16.53;70.17;100306.55;106150;1274;25594;-59
2022/07/04 01:05:17;;;;;;;7.20;2.70;;;;;;;16.50;70.27;100310.54;106122;1274;25556;-60
2022/07/04 01:07:48;;;;;;;6.90;2.50;;;;;;;16.46;70.27;100304.90;106214;1272;22572;-60
2022/07/04 01:10:17;;;;;;;9.00;2.50;;;;;;;16.42;70.40;100306.52;106034;1274;25241;-60
2022/07/04 01:12:46;;;;;;;8.30;2.80;;;;;;;16.37;70.48;100308.27;106344;1274;25931;-61
2022/07/04 01:15:15;;;;;;;8.60;3.30;;;;;;;16.32;70.76;100305.36;106227;1274;25273;-61
2022/07/04 01:17:44;;;;;;;8.30;3.00;;;;;;;16.28;70.89;100307.58;106371;1274;26116;-59
2022/07/04 01:20:14;;;;;;;6.90;2.70;;;;;;;16.24;70.93;100300.62;106128;1274;24441;-61
2022/07/04 01:22:42;;;;;;;8.40;3.30;;;;;;;16.21;71.03;100302.33;106096;1274;22580;-59
2022/07/04 01:25:12;;;;;;;14.70;2.80;;;;;;;16.17;71.14;100300.23;106160;1274;25274;-58
2022/07/04 01:27:42;;;;;;;8.50;2.80;;;;;;;16.14;71.19;100301.06;105978;1274;22548;-59
2022/07/04 01:30:13;;;;;;;10.50;3.10;;;;;;;16.10;71.37;100302.66;106265;1273;25390;-61
2022/07/04 01:32:43;;;;;;;11.20;3.30;;;;;;;16.07;71.59;100302.72;106411;1273;22708;-59
2022/07/04 01:35:15;;;;;;;11.00;2.70;;;;;;;16.03;71.65;100300.47;106105;1274;22567;-61
2022/07/04 01:37:45;;;;;;;8.50;3.10;;;;;;;16.01;71.43;100296.02;106096;1274;22560;-59
2022/07/04 01:40:14;;;;;;;7.90;2.70;;;;;;;15.98;71.58;100294.89;106124;1273;25352;-58
2022/07/04 01:42:43;;;;;;;8.40;3.10;;;;;;;15.94;71.55;100290.82;106276;1273;24801;-58
2022/07/04 01:45:12;;;;;;;9.50;3.00;;;;;;;15.89;71.85;100285.66;106204;1274;22708;-58
2022/07/04 01:47:42;;;;;;;8.90;3.10;;;;;;;15.85;71.87;100287.09;105999;1274;26663;-56
2022/07/04 01:50:12;;;;;;;7.10;2.80;;;;;;;15.83;71.89;100280.97;106124;1273;25281;-59
2022/07/04 01:52:42;;;;;;;7.50;3.00;;;;;;;15.81;72.04;100277.68;106007;1273;25278;-58
2022/07/04 01:55:12;;;;;;;8.30;2.90;;;;;;;15.78;72.17;100274.72;106001;1274;23780;-58
2022/07/04 01:57:41;;;;;;;8.50;2.90;;;;;;;15.74;72.31;100269.61;106026;1273;22564;-58
2022/07/04 02:02:59;;;;;;;7.60;2.70;;;;;;;15.66;72.68;100267.98;106003;1273;22577;-60
2022/07/04 02:05:29;;;;;;;9.00;2.90;;;;;;;15.64;72.76;100261.70;106182;1274;22872;-58
2022/07/04 02:07:57;;;;;;;9.10;2.70;;;;;;;15.64;72.86;100259.45;106194;1274;22729;-58
2022/07/04 02:10:27;;;;;;;9.40;3.40;;;;;;;15.60;72.94;100257.20;106216;1272;25698;-59
2022/07/04 02:13:03;;;;;;;11.00;4.10;;;;;;;15.59;72.90;100248.80;106165;1273;24030;-58
2022/07/04 02:15:33;;;;;;;8.80;3.30;;;;;;;15.59;73.10;100249.57;106120;1273;23054;-58
2022/07/04 02:18:02;;;;;;;11.10;4.00;;;;;;;15.59;73.14;100248.45;106143;1273;22541;-58
2022/07/04 02:20:31;;;;;;;10.80;3.80;;;;;;;15.57;73.19;100246.86;106243;1273;22498;-60
2022/07/04 02:23:00;;;;;;;11.60;4.20;;;;;;;15.53;73.35;100253.88;106093;1273;25551;-59
2022/07/04 02:25:30;;;;;;;11.50;4.30;;;;;;;15.48;73.53;100252.86;106205;1273;24231;-58
2022/07/04 02:27:59;;;;;;;14.70;3.60;;;;;;;15.46;73.56;100254.60;106258;1273;22463;-57
2022/07/04 02:30:28;;;;;;;8.40;3.20;;;;;;;15.42;73.70;100254.42;106240;1273;22543;-60
2022/07/04 02:32:56;;;;;;;11.60;3.00;;;;;;;15.39;73.76;100253.08;106160;1273;23021;-55
2022/07/04 02:35:25;;;;;;;11.20;3.40;;;;;;;15.37;73.88;100256.31;106035;1273;25404;-60
2022/07/04 02:37:55;;;;;;;11.20;3.60;;;;;;;15.35;73.88;100256.11;106191;1273;22563;-60
2022/07/04 02:40:24;;;;;;;10.50;3.30;;;;;;;15.33;73.82;100256.73;106270;1273;22710;-58
2022/07/04 02:42:54;;;;;;;12.40;4.00;;;;;;;15.35;74.03;100264.23;106273;1273;24335;-58
2022/07/04 02:45:23;;;;;;;9.70;3.70;;;;;;;15.35;74.12;100262.19;106344;1273;22571;-60
2022/07/04 02:47:52;;;;;;;10.70;3.40;;;;;;;15.33;74.22;100270.23;106230;1273;25389;-57
2022/07/04 02:50:21;;;;;;;11.00;3.40;;;;;;;15.30;74.43;100272.31;106218;1273;24731;-58
2022/07/04 02:52:50;;;;;;;9.90;3.10;;;;;;;15.26;74.56;100274.61;106304;1273;25959;-60
2022/07/04 02:55:19;;;;;;;11.90;3.80;;;;;;;15.23;74.52;100275.94;106280;1274;22605;-61
2022/07/04 02:57:48;;;;;;;9.10;3.60;;;;;;;15.20;74.62;100273.59;106205;1273;22538;-58
2022/07/04 03:00:18;;;;;;;10.50;3.20;;;;;;;15.19;74.69;100273.17;106302;1273;22592;-56
2022/07/04 03:02:47;;;;;;;11.00;3.80;;;;;;;15.18;74.70;100272.20;106316;1273;22589;-57
2022/07/04 03:05:15;;;;;;;7.80;2.80;;;;;;;15.15;74.81;100270.88;106213;1273;22658;-59
2022/07/04 03:07:44;;;;;;;7.40;2.80;;;;;;;15.12;74.96;100267.91;106252;1273;22636;-59
2022/07/04 03:10:13;;;;;;;9.10;3.40;;;;;;;15.09;75.14;100265.80;102642;1258;5431701;-50
2022/07/04 03:12:42;;;;;;;8.70;3.10;;;;;;;15.06;74.95;100265.80;105803;1271;22610;-50
2022/07/04 03:15:12;;;;;;;9.60;3.20;;;;;;;15.04;75.09;100267.17;105686;1271;22580;-52
2022/07/04 03:17:41;;;;;;;10.40;3.70;;;;;;;15.02;75.13;100269.33;105758;1271;25372;-53
2022/07/04 03:20:12;;;;;;;11.20;3.00;;;;;;;15.01;75.31;100270.61;105761;1274;22740;-52
2022/07/04 03:22:41;;;;;;;8.90;3.30;;;;;;;14.98;75.54;100273.77;106928;1274;22613;-51
2022/07/04 03:25:11;;;;;;;12.40;2.90;;;;;;;14.97;75.42;100277.04;109697;1272;23266;-55
2022/07/04 03:27:39;;;;;;;8.80;3.60;;;;;;;14.97;75.71;100277.86;109718;1271;23303;-51
2022/07/04 03:30:10;;;;;;;8.00;2.80;;;;;;;14.96;75.80;100277.20;109206;1273;25267;-52
2022/07/04 03:32:39;;;;;;;14.70;4.00;;;;;;;14.97;75.60;100281.44;106238;1274;22563;-52
2022/07/04 03:35:09;;;;;;;8.40;3.80;;;;;;;15.00;76.01;100290.13;105873;1274;25601;-51
2022/07/04 03:37:38;;;;;;;15.00;4.60;;;;;;;15.00;76.03;100294.77;105710;1273;25425;-49
2022/07/04 03:40:09;;;;;;;9.20;3.80;;;;;;;15.00;76.32;100293.45;105969;1272;29207;-53
2022/07/04 03:42:38;;;;;;;12.50;4.20;;;;;;;15.00;76.36;100294.21;105768;1273;22544;-49
2022/07/04 03:45:10;;;;;;;12.40;4.40;;;;;;;15.02;76.44;100288.44;105944;1273;22707;-52
2022/07/04 03:47:39;;;;;;;11.20;4.20;;;;;;;15.03;76.72;100290.33;105740;1274;22535;-53
2022/07/04 03:50:09;;;;;;;10.10;4.40;;;;;;;15.03;76.76;100295.34;105927;1274;22567;-50
2022/07/04 03:52:38;;;;;;;10.90;4.50;;;;;;;15.06;76.90;100292.64;105936;1274;22557;-50
2022/07/04 03:55:09;;;;;;;10.40;4.60;;;;;;;15.12;76.78;100296.13;105725;1273;24285;-52
2022/07/04 03:57:38;;;;;;;14.10;4.60;;;;;;;15.18;76.95;100294.23;105804;1273;22541;-50
2022/07/04 04:00:09;;;;;;;9.80;4.20;;;;;;;15.21;77.28;100292.71;105934;1273;22571;-52
2022/07/04 04:02:38;;;;;;;9.80;4.10;;;;;;;15.24;77.32;100293.48;105664;1272;24254;-52
2022/07/04 04:05:27;;;;;;;11.70;4.60;;;;;;;15.27;77.40;100288.58;105781;1273;22707;-50
2022/07/04 04:07:57;;;;;;;14.80;5.10;;;;;;;15.33;77.41;100288.38;105897;1273;22648;-50
2022/07/04 04:10:27;;;;;;;10.70;5.30;;;;;;;15.39;77.40;100291.81;105949;1273;22566;-50
2022/07/04 04:12:55;;;;;;;11.70;5.00;;;;;;;15.46;77.77;100291.98;105676;1274;22606;-51
2022/07/04 04:15:24;;;;;;;16.00;5.50;;;;;;;15.53;77.97;100291.27;105737;1273;22552;-52
2022/07/04 04:17:53;;;;;;;14.00;6.70;;;;;;;15.61;77.99;100287.23;105858;1273;26006;-53
2022/07/04 04:20:22;;;;;;;13.40;6.40;;;;;;;15.66;78.16;100284.66;105769;1273;25671;-49
2022/07/04 04:22:51;;;;;;;17.10;6.80;;;;;;;15.74;78.26;100287.31;105754;1271;25541;-54
2022/07/04 04:25:20;;;;;;;14.60;7.30;;;;;;;15.82;78.15;100284.54;105975;1272;25451;-49
2022/07/04 04:27:49;;;;;;;16.40;7.20;;;;;;;15.91;78.36;100287.19;105833;1273;25490;-47
2022/07/04 04:30:18;;;;;;;14.10;6.50;;;;;;;16.00;78.25;100282.45;105672;1273;22577;-52
2022/07/04 04:32:46;;;;;;;17.50;7.10;;;;;;;16.11;78.51;100280.69;105823;1271;24448;-50
2022/07/04 04:35:15;;;;;;;18.10;7.20;;;;;;;16.22;78.60;100278.55;105676;1272;26501;-52
2022/07/04 04:37:44;;;;;;;16.10;6.00;;;;;;;16.35;78.50;100275.47;105660;1272;25424;-50
2022/07/04 04:40:14;;;;;;;12.20;5.50;;;;;;;16.46;78.56;100270.06;105698;1273;22666;-56
2022/07/04 04:42:43;;;;;;;12.70;5.50;;;;;;;16.53;78.59;100268.11;106034;1273;25403;-52
2022/07/04 04:45:12;;;;;;;13.80;6.40;;;;;;;16.64;78.68;100269.64;105856;1273;22564;-53
2022/07/04 04:47:43;;;;;;;15.30;5.60;;;;;;;16.75;78.74;100271.17;105677;1273;22534;-53
2022/07/04 04:50:14;;;;;;;17.80;6.40;;;;;;;16.85;78.88;100278.09;105739;1273;24241;-55
2022/07/04 04:52:43;;;;;;;15.00;5.60;;;;;;;16.98;78.87;100277.86;105670;1273;22552;-51
2022/07/04 04:55:12;;;;;;;13.30;6.20;;;;;;;17.08;78.79;100276.87;105980;1272;25440;-54
2022/07/04 04:57:42;;;;;;;13.40;6.40;;;;;;;17.21;78.88;100272.00;105784;1273;24419;-52
2022/07/04 05:00:14;;;;;;;13.40;5.70;;;;;;;17.36;78.73;100272.66;105730;1271;22563;-54
2022/07/04 05:02:42;;;;;;;13.30;5.40;;;;;;;17.47;78.50;100272.79;105974;1273;22563;-48
2022/07/04 05:05:12;;;;;;;13.20;4.90;;;;;;;17.60;78.61;100270.58;106490;1271;25378;-50
2022/07/04 05:07:41;;;;;;;13.80;4.30;;;;;;;17.76;78.40;100263.14;105831;1273;25417;-49
2022/07/04 05:10:11;;;;;;;11.80;5.70;;;;;;;17.92;78.39;100268.73;105819;1273;22556;-48
2022/07/04 05:12:41;;;;;;;10.10;4.50;;;;;;;18.05;78.24;100268.13;105774;1273;24250;-48
2022/07/04 05:15:11;;;;;;;13.10;4.70;;;;;;;18.16;77.94;100266.94;105920;1270;22681;-51
2022/07/04 05:17:40;;;;;;;12.50;4.80;;;;;;;18.27;77.99;100267.25;105914;1272;25327;-48
2022/07/04 05:20:11;;;;;;;9.90;4.10;;;;;;;18.40;77.67;100266.17;105852;1273;24233;-48
2022/07/04 05:22:40;;;;;;;13.10;4.10;;;;;;;18.50;77.52;100265.77;106161;1273;25404;-50
2022/07/04 05:25:10;;;;;;;8.70;3.00;;;;;;;18.64;77.78;100268.64;105747;1271;25563;-48
2022/07/04 05:27:39;;;;;;;9.60;3.20;;;;;;;18.82;77.56;100271.30;105898;1273;24262;-51
2022/07/04 05:30:11;;;;;;;10.70;3.40;;;;;;;19.00;77.06;100275.46;105909;1273;27022;-49
2022/07/04 05:32:41;;;;;;;9.30;3.10;;;;;;;19.16;76.87;100277.09;105903;1271;24805;-50
2022/07/04 05:35:10;;;;;;;8.40;3.00;;;;;;;19.32;76.80;100282.59;105627;1271;25488;-51
2022/07/04 05:37:39;;;;;;;12.70;3.50;;;;;;;19.49;76.38;100278.17;105675;1273;27428;-53
2022/07/04 05:40:10;;;;;;;7.80;3.10;;;;;;;19.66;76.34;100282.94;105712;1270;23377;-49
2022/07/04 05:42:38;;;;;;;9.10;3.20;;;;;;;19.84;76.11;100279.36;106007;1273;23026;-50
2022/07/04 05:45:09;;;;;;;11.10;3.50;;;;;;;20.02;75.68;100284.80;105668;1273;25438;-51
2022/07/04 05:47:36;;;;;;;;;;;;;;;20.17;75.28;100287.27;105859;1273;22548;-51
2022/07/04 05:50:07;;;;;;;7.40;2.40;;;;;;;20.29;74.92;100290.04;105963;1273;24626;-51
2022/07/04 05:52:36;;;;;;;7.80;2.60;;;;;;;20.43;74.75;100288.71;105541;1271;22599;-48
2022/07/04 05:55:07;;;;;;;8.50;2.60;;;;;;;20.57;74.25;100290.76;105708;1272;25267;-53
2022/07/04 05:57:36;;;;;;;6.50;2.20;;;;;;;20.66;73.58;100290.20;105619;1273;25531;-49
2022/07/04 06:00:07;;;;;;;8.20;2.10;;;;;;;20.76;73.84;100290.74;105664;1272;24895;-50
2022/07/04 06:02:36;;;;;;;8.60;2.60;;;;;;;20.91;73.45;100288.01;105751;1273;22557;-51
2022/07/04 06:05:06;;;;;;;8.30;2.60;;;;;;;21.01;72.72;100286.02;105890;1273;22537;-52
2022/07/04 06:07:35;;;;;;;5.70;2.20;;;;;;;21.18;72.75;100286.98;105913;1273;22599;-52
2022/07/04 06:10:04;;;;;;;10.20;2.80;;;;;;;21.33;72.39;100289.52;106555;1273;22582;-52
2022/07/04 06:12:34;;;;;;;5.30;2.00;;;;;;;21.45;71.61;100293.76;105989;1273;22720;-52
2022/07/04 06:15:06;;;;;;;8.10;2.30;;;;;;;21.54;71.25;100293.55;105890;1273;24388;-50
2022/07/04 06:17:35;;;;;;;5.50;2.00;;;;;;;21.66;71.54;100297.66;105930;1273;22538;-49
2022/07/04 06:20:06;;;;;;;7.00;2.40;;;;;;;21.83;70.82;100302.71;105746;1273;22825;-49
2022/07/04 06:22:41;;;;;;;9.50;2.70;;;;;;;21.93;70.45;100307.77;106297;1273;24498;-50
2022/07/04 06:25:13;;;;;;;7.20;2.30;;;;;;;22.02;69.87;100312.77;105592;1273;22622;-51
2022/07/04 06:27:42;;;;;;;7.10;2.40;;;;;;;22.09;69.53;100316.95;105744;1273;25541;-49
2022/07/04 06:30:14;;;;;;;8.70;2.20;;;;;;;22.17;69.11;100320.16;105785;1273;22560;-49
2022/07/04 06:32:45;;;;;;;7.70;2.50;;;;;;;22.23;68.93;100322.10;105791;1273;24310;-50
2022/07/04 06:38:02;;;;;;;7.20;2.70;;;;;;;22.43;68.34;100324.80;105718;1273;22546;-50
2022/07/04 06:40:35;;;;;;;7.80;2.10;;;;;;;22.52;67.93;100331.01;105847;1273;25333;-49
2022/07/04 06:43:04;;;;;;;10.70;2.50;;;;;;;22.63;67.20;100325.11;105932;1273;25334;-51
2022/07/04 06:45:34;;;;;;;7.60;2.30;;;;;;;22.74;66.78;100321.31;105819;1273;22545;-50
2022/07/04 06:48:03;;;;;;;9.20;2.20;;;;;;;22.83;66.21;100318.55;105995;1273;22540;-52
2022/07/04 06:50:32;;;;;;;10.70;1.70;;;;;;;22.90;65.54;100320.33;105655;1273;22577;-49
2022/07/04 06:53:01;;;;;;;9.80;2.20;;;;;;;22.98;65.50;100318.42;106107;1273;23216;-49
2022/07/04 06:55:31;;;;;;;9.50;2.10;;;;;;;23.06;65.33;100316.52;105976;1272;25311;-51
2022/07/04 06:58:00;;;;;;;10.50;2.30;;;;;;;23.13;64.51;100321.52;105653;1273;25392;-50
2022/07/04 07:00:30;;;;;;;7.10;1.60;;;;;;;23.15;64.07;100322.84;105713;1273;22750;-51
2022/07/04 07:02:59;;;;;;;10.90;1.70;;;;;;;23.18;63.88;100319.70;105689;1273;24360;-53
2022/07/04 07:05:30;;;;;;;7.10;2.10;;;;;;;23.22;63.53;100318.36;105842;1273;24567;-52
2022/07/04 07:07:58;;;;;;;6.50;1.70;;;;;;;23.26;63.49;100320.76;106143;1273;25248;-51
2022/07/04 07:10:28;;;;;;;6.60;1.90;;;;;;;23.32;63.33;100318.80;105909;1273;25315;-53
2022/07/04 07:12:57;;;;;;;6.80;1.60;;;;;;;23.41;63.24;100322.04;105831;1272;22592;-51
2022/07/04 07:15:26;;;;;;;7.20;1.90;;;;;;;23.49;62.59;100318.13;105872;1273;24332;-50
2022/07/04 07:17:55;;;;;;;8.10;1.40;;;;;;;23.57;62.24;100313.98;105839;1273;22544;-52
2022/07/04 07:20:24;;;;;;;5.80;1.60;;;;;;;23.64;62.30;100312.48;105738;1273;22574;-51
2022/07/04 07:22:53;;;;;;;5.00;1.50;;;;;;;23.72;62.21;100312.95;105620;1273;22595;-51
2022/07/04 07:25:22;;;;;;;6.60;1.50;;;;;;;23.80;61.60;100312.31;105643;1273;25292;-50
2022/07/04 07:27:51;;;;;;;8.80;1.50;;;;;;;23.85;60.90;100302.88;105793;1272;23267;-53
2022/07/04 07:30:21;;;;;;;8.20;1.30;;;;;;;23.92;61.09;100299.98;105809;1273;25370;-51
2022/07/04 07:32:50;;;;;;;8.20;1.40;;;;;;;24.02;60.37;100301.93;105788;1273;22541;-50
2022/07/04 07:35:19;;;;;;;10.10;1.50;;;;;;;24.09;59.94;100302.89;105702;1271;24322;-51
2022/07/04 07:37:47;;;;;;;8.40;1.50;;;;;;;24.17;59.40;100301.89;105617;1272;22559;-52
2022/07/04 07:40:17;;;;;;;8.60;1.40;;;;;;;24.24;58.80;100303.02;105664;1273;22560;-52
2022/07/04 07:42:47;;;;;;;8.70;1.50;;;;;;;24.35;58.67;100307.27;105666;1273;22705;-52
2022/07/04 07:45:15;;;;;;;;;;;;;;;24.45;58.44;100307.85;105730;1273;22547;-51
2022/07/04 07:47:44;;;;;;;6.20;1.40;;;;;;;24.55;57.58;100304.44;105714;1273;22578;-50
2022/07/04 07:50:13;;;;;;;8.40;1.50;;;;;;;24.64;57.37;100300.72;105734;1273;22500;-50
2022/07/04 07:52:42;;;;;;;7.00;1.30;;;;;;;24.76;57.16;100300.80;105772;1273;22573;-51
2022/07/04 07:55:10;;;;;;;4.80;1.10;;;;;;;24.89;55.96;100302.70;105807;1273;22675;-52
2022/07/04 07:57:39;;;;;;;6.50;1.20;;;;;;;24.98;55.28;100303.69;105563;1272;22677;-53
2022/07/04 08:00:21;;;;;;;5.50;0.90;;;;;;;25.07;54.87;100309.90;107175;1271;24198;-53
2022/07/04 08:06:18;;;;;;;4.50;1.00;;;;;;;25.28;53.04;100310.31;106231;1273;22558;-50
2022/07/04 08:08:47;;;;;;;6.60;1.00;;;;;;;25.31;53.14;100318.67;105580;1273;24243;-50
2022/07/04 08:11:16;;;;;;;6.20;1.20;;;;;;;25.35;52.70;100326.05;105710;1273;25403;-51
2022/07/04 08:13:45;;;;;;;7.50;1.10;;;;;;;25.41;53.05;100326.07;105647;1273;25358;-51
2022/07/04 08:16:14;;;;;;;6.80;1.20;;;;;;;25.47;52.95;100324.20;105865;1273;22523;-50
2022/07/04 08:18:43;;;;;;;4.30;1.10;;;;;;;25.51;52.54;100319.04;105832;1273;25400;-54
2022/07/04 08:21:13;;;;;;;5.00;1.00;;;;;;;25.55;51.91;100314.81;105722;1273;25291;-49
2022/07/04 08:23:42;;;;;;;3.60;1.30;;;;;;;25.59;51.88;100312.45;105938;1272;24374;-52
2022/07/04 08:26:14;;;;;;;6.80;1.70;;;;;;;25.62;51.40;100318.95;105798;1273;22568;-51
2022/07/04 08:28:47;;;;;;;9.10;2.00;;;;;;;25.65;51.55;100319.63;105851;1273;22560;-50
2022/07/04 08:31:19;;;;;;;8.50;1.10;;;;;;;25.72;51.49;100317.36;105920;1273;24349;-50
2022/07/04 08:33:48;;;;;;;7.20;1.10;;;;;;;25.81;51.42;100315.46;105931;1273;24827;-50
2022/07/04 08:36:17;;;;;;;5.50;1.10;;;;;;;25.90;51.34;100312.64;105696;1273;22685;-50
2022/07/04 08:38:46;;;;;;;3.80;1.00;;;;;;;26.00;50.79;100308.35;105741;1273;24218;-53
2022/07/04 08:41:16;;;;;;;6.50;1.10;;;;;;;26.08;50.53;100303.08;105973;1273;22554;-56
2022/07/04 08:43:48;;;;;;;8.40;1.20;;;;;;;26.12;49.88;100309.15;105744;1273;22599;-49
2022/07/04 08:46:24;;;;;;;6.10;1.10;;;;;;;26.16;49.57;100316.90;105832;1273;22559;-52
2022/07/04 08:48:55;;;;;;;7.20;1.30;;;;;;;26.18;49.34;100316.27;105765;1273;22604;-54
2022/07/04 08:51:38;;;;;;;5.40;1.20;;;;;;;26.23;49.43;100313.23;106002;1273;25261;-53
2022/07/04 08:59:49;;;;;;;7.40;1.70;;;;;;;26.50;49.27;100323.77;105465;1276;22583;-49
2022/07/04 09:02:22;;;;;;;5.30;1.10;;;;;;;26.57;48.95;100329.15;105550;1276;25450;-60
2022/07/04 09:04:53;;;;;;;5.30;1.30;;;;;;;26.63;48.77;100335.35;105670;1276;24266;-52
2022/07/04 09:07:23;;;;;;;9.40;1.40;;;;;;;26.66;48.06;100339.40;105640;1276;22543;-51
2022/07/04 09:09:54;;;;;;;4.30;1.10;;;;;;;26.64;48.08;100336.52;105623;1276;22566;-51
2022/07/04 09:12:23;;;;;;;9.20;1.40;;;;;;;26.64;47.90;100343.46;105663;1276;25256;-52
2022/07/04 09:14:56;;;;;;;6.50;1.30;;;;;;;26.68;47.85;100341.75;105563;1276;22552;-51
2022/07/04 09:17:42;;;;;;;4.80;0.90;;;;;;;26.67;47.22;100340.98;105964;1276;22530;-54
2022/07/04 09:20:19;;;;;;;5.20;1.20;;;;;;;26.64;47.59;100341.89;105791;1276;22556;-49
2022/07/04 09:22:53;;;;;;;6.70;1.70;;;;;;;26.62;47.26;100343.56;106236;1276;23752;-53
2022/07/04 09:25:28;;;;;;;7.40;1.20;;;;;;;26.63;47.47;100346.19;105834;1276;22564;-54
2022/07/04 09:27:58;;;;;;;8.80;1.30;;;;;;;26.62;47.20;100344.11;105718;1276;24334;-53
2022/07/04 09:30:28;;;;;;;4.20;1.00;;;;;;;26.62;47.32;100349.00;105589;1276;22562;-50
2022/07/04 09:33:00;;;;;;;;;;;;;;;26.63;47.18;100354.36;105646;1276;22540;-54
2022/07/04 09:35:31;;;;;;;5.10;1.10;;;;;;;26.59;46.95;100349.30;105636;1276;25377;-52
2022/07/04 09:38:03;;;;;;;4.70;1.10;;;;;;;26.54;46.84;100352.33;105832;1273;22573;-55
2022/07/04 09:41:24;;;;;;;4.10;1.00;;;;;;;26.53;46.94;100351.30;105865;1273;24425;-54
2022/07/04 09:43:23;;;;;;;4.50;1.20;;;;;;;26.53;46.79;100355.08;105645;1273;22547;-55
2022/07/04 09:45:56;;;;;;;7.20;1.50;;;;;;;26.52;47.24;100346.69;105909;1273;22538;-52
2022/07/04 09:48:25;;;;;;;7.00;1.30;;;;;;;26.56;47.59;100345.61;105989;1273;22548;-52
2022/07/04 09:50:55;;;;;;;4.30;1.70;;;;;;;26.61;47.72;100352.20;106007;1273;22571;-54
2022/07/04 09:53:29;;;;;;;9.00;1.50;;;;;;;26.60;47.63;100354.16;106391;1273;22553;-50
2022/07/04 09:55:59;;;;;;;5.80;1.40;;;;;;;26.58;48.20;100349.80;105884;1272;26523;-54
2022/07/04 09:58:29;;;;;;;16.00;2.90;;;;;;;26.62;47.65;100350.85;106067;1272;26237;-51
2022/07/04 10:01:01;;;;;;;11.00;1.80;;;;;;;26.62;47.19;100359.17;105778;1273;22553;-53
2022/07/04 10:03:32;;;;;;;6.50;1.60;;;;;;;26.60;47.44;100364.25;105782;1273;24260;-54
2022/07/04 10:06:08;;;;;;;5.00;1.30;;;;;;;26.57;47.03;100368.79;105943;1273;23042;-50
2022/07/04 10:08:39;;;;;;;9.00;2.10;;;;;;;26.49;47.26;100370.97;105915;1273;22679;-51
2022/07/04 10:11:41;;;;;;;5.80;1.60;;;;;;;26.42;47.14;100369.83;106055;1273;24031;-53
2022/07/04 10:14:13;;;;;;;7.70;1.70;;;;;;;26.30;46.82;100369.77;106217;1273;22647;-52
2022/07/04 10:16:44;;;;;;;9.60;1.80;;;;;;;26.15;47.18;100371.20;105784;1273;22586;-54
2022/07/04 10:19:26;;;;;;;6.70;1.60;;;;;;;26.04;47.45;100369.09;105841;1273;25312;-54
2022/07/04 10:22:00;;;;;;;11.50;1.60;;;;;;;26.00;47.60;100367.29;105785;1272;25364;-50
2022/07/04 10:24:29;;;;;;;7.20;1.80;;;;;;;25.97;47.82;100364.22;105764;1270;22539;-51
2022/07/04 10:26:59;;;;;;;8.10;1.80;;;;;;;25.97;48.09;100363.50;105875;1273;22697;-52
2022/07/04 10:29:29;;;;;;;8.50;1.90;;;;;;;25.99;48.29;100373.39;106084;1271;22710;-50
2022/07/04 10:31:59;;;;;;;7.90;1.80;;;;;;;25.99;48.51;100374.92;105831;1273;24419;-53
2022/07/04 10:34:29;;;;;;;7.50;1.50;;;;;;;25.95;48.34;100377.16;105644;1273;22538;-52
2022/07/04 10:36:58;;;;;;;9.10;1.70;;;;;;;25.90;48.31;100376.63;105711;1273;22633;-53
2022/07/04 10:39:29;;;;;;;3.80;1.50;;;;;;;25.88;48.45;100374.36;105784;1273;25590;-53
2022/07/04 10:42:01;;;;;;;6.60;1.80;;;;;;;25.87;48.53;100372.61;105809;1273;22617;-53
2022/07/04 10:44:37;;;;;;;7.60;2.10;;;;;;;25.90;48.72;100371.48;106118;1273;25579;-54
2022/07/04 10:47:21;;;;;;;5.50;1.60;;;;;;;25.95;49.01;100368.42;105658;1273;24501;-53
2022/07/04 10:49:51;;;;;;;8.70;1.90;;;;;;;25.99;49.10;100374.21;106348;1273;22606;-52
2022/07/04 10:52:49;;;;;;;4.80;1.60;;;;;;;25.97;48.99;100371.35;106233;1273;25210;-52
2022/07/04 10:55:27;;;;;;;8.30;2.10;;;;;;;25.97;49.31;100372.02;106290;1272;22620;-56
2022/07/04 10:58:45;;;;;;;7.00;2.00;;;;;;;25.97;49.20;100366.63;106061;1273;25293;-55
2022/07/04 11:01:19;;;;;;;8.00;1.50;;;;;;;25.95;49.59;100368.59;106170;1273;25244;-53
2022/07/04 11:04:16;;;;;;;5.30;1.70;;;;;;;25.97;49.60;100370.09;106024;1273;24909;-51
2022/07/04 11:06:55;;;;;;;9.30;2.00;;;;;;;26.02;49.84;100361.02;106065;1273;24000;-52
2022/07/04 11:09:26;;;;;;;3.90;1.70;;;;;;;26.08;50.29;100353.58;105937;1273;22706;-53
2022/07/04 11:12:00;;;;;;;7.00;1.70;;;;;;;26.17;50.25;100352.95;106205;1273;23416;-52
2022/07/04 11:14:47;;;;;;;8.80;1.90;;;;;;;26.27;50.22;100350.48;105958;1273;22541;-53
2022/07/04 11:17:32;;;;;;;9.60;1.90;;;;;;;26.32;49.82;100349.10;105732;1273;22556;-57
2022/07/04 11:20:03;;;;;;;8.30;1.80;;;;;;;26.35;49.76;100339.34;105836;1272;25261;-52
2022/07/04 11:22:34;;;;;;;5.50;2.00;;;;;;;26.41;50.02;100336.09;105831;1273;22715;-52
2022/07/04 11:25:04;;;;;;;6.50;1.90;;;;;;;26.44;49.60;100332.19;106141;1273;22554;-53
2022/07/04 11:27:32;;;;;;;7.90;2.00;;;;;;;26.46;49.94;100329.08;105714;1273;22560;-54
2022/07/04 11:30:01;;;;;;;7.60;1.80;;;;;;;26.53;50.32;100330.48;105722;1273;22532;-52
2022/07/04 11:32:34;;;;;;;5.80;1.70;;;;;;;26.63;49.77;100328.33;105878;1272;25532;-49
2022/07/04 11:35:03;;;;;;;10.80;2.10;;;;;;;26.72;49.94;100330.07;105966;1273;22560;-53
2022/07/04 11:37:33;;;;;;;7.70;1.50;;;;;;;26.79;49.64;100331.26;105830;1273;24317;-50
2022/07/04 11:45:54;;;;;;;5.40;1.60;;;;;;;26.99;49.74;100326.31;105733;1273;25306;-50
2022/07/04 11:48:24;;;;;;;7.10;1.40;;;;;;;27.11;49.40;100327.50;105877;1273;22549;-51
2022/07/04 11:50:53;;;;;;;5.80;1.80;;;;;;;27.17;49.44;100327.06;106054;1273;22584;-50
2022/07/04 11:53:22;;;;;;;10.00;1.70;;;;;;;27.23;49.00;100325.53;105759;1273;22542;-51